Time;durP1;ratioP1;P1;durP2;ratioP2;P2;SDS_P1;SDS_P2;PMS_P1;PMS_P2;Temp;Humidity;BMP_temperature;BMP_pressure;BME280_temperature;BME280_humidity;BME280_pressure;Samples;Min_cycle;Max_cycle;Signal;HPM_P1;HPM_P2
2023/08/15 00:02:04;;;;;;;6.73;2.30;;;;;;;;;;5013183;28;20344;-65
2023/08/15 00:04:31;;;;;;;5.17;2.40;;;;;;;;;;5018657;28;20029;-64
2023/08/15 00:06:59;;;;;;;4.30;2.20;;;;;;;;;;5006799;28;20252;-66
2023/08/15 00:09:24;;;;;;;6.30;2.40;;;;;;;;;;5015483;28;20033;-66
2023/08/15 00:11:52;;;;;;;5.68;3.05;;;;;;;;;;5014318;28;20025;-65
2023/08/15 00:14:17;;;;;;;5.15;2.80;;;;;;;;;;5013109;28;20079;-65
2023/08/15 00:16:42;;;;;;;5.43;2.87;;;;;;;;;;5014430;28;21433;-65
2023/08/15 00:19:12;;;;;;;5.30;2.75;;;;;;;;;;5006590;28;20128;-63
2023/08/15 00:21:39;;;;;;;6.95;3.13;;;;;;;;;;5015995;28;20061;-62
2023/08/15 00:24:05;;;;;;;5.63;2.95;;;;;;;;;;5014320;28;20025;-62
2023/08/15 00:26:30;;;;;;;6.45;3.08;;;;;;;;;;5003530;28;20084;-62
2023/08/15 00:28:55;;;;;;;6.53;3.50;;;;;;;;;;5009569;28;20499;-62
2023/08/15 00:31:20;;;;;;;6.37;3.43;;;;;;;;;;5018070;28;20970;-62
2023/08/15 00:33:46;;;;;;;6.37;3.30;;;;;;;;;;5012120;28;20284;-62
2023/08/15 00:36:14;;;;;;;6.65;3.00;;;;;;;;;;5018041;28;20100;-62
2023/08/15 00:38:39;;;;;;;6.22;3.35;;;;;;;;;;5007097;28;20068;-62
2023/08/15 00:41:04;;;;;;;5.63;3.10;;;;;;;;;;5014140;28;20124;-62
2023/08/15 00:43:32;;;;;;;5.23;3.20;;;;;;;;;;5019894;28;20030;-62
2023/08/15 00:46:01;;;;;;;6.82;3.00;;;;;;;;;;5010437;28;20112;-64
2023/08/15 00:48:29;;;;;;;6.20;3.38;;;;;;;;;;5005610;28;20017;-64
2023/08/15 00:50:58;;;;;;;7.53;3.80;;;;;;;;;;5015424;28;20014;-64
2023/08/15 00:53:23;;;;;;;6.17;3.27;;;;;;;;;;5013426;28;20028;-62
2023/08/15 00:55:51;;;;;;;5.30;3.15;;;;;;;;;;5009461;28;20272;-65
2023/08/15 00:58:18;;;;;;;5.78;3.10;;;;;;;;;;5014612;28;20026;-62
2023/08/15 01:00:44;;;;;;;6.80;3.55;;;;;;;;;;5023443;28;20097;-64
2023/08/15 01:03:10;;;;;;;6.17;3.40;;;;;;;;;;5015043;28;20025;-61
2023/08/15 01:05:35;;;;;;;5.60;3.60;;;;;;;;;;5012859;28;20919;-61
2023/08/15 01:08:01;;;;;;;6.95;3.10;;;;;;;;;;5011658;28;20017;-61
2023/08/15 01:10:26;;;;;;;6.53;3.60;;;;;;;;;;5013289;28;20674;-62
2023/08/15 01:12:57;;;;;;;5.20;3.22;;;;;;;;;;5013553;28;20325;-61
2023/08/15 01:15:27;;;;;;;6.90;3.33;;;;;;;;;;5018189;28;20037;-62
2023/08/15 01:17:58;;;;;;;6.25;3.30;;;;;;;;;;5019021;28;20022;-63
2023/08/15 01:20:28;;;;;;;6.68;3.65;;;;;;;;;;5016451;28;20095;-61
2023/08/15 01:22:53;;;;;;;6.65;3.17;;;;;;;;;;5025473;28;20033;-61
2023/08/15 01:25:19;;;;;;;6.05;3.30;;;;;;;;;;5010106;28;20028;-61
2023/08/15 01:27:44;;;;;;;5.40;3.10;;;;;;;;;;5022872;28;20013;-62
2023/08/15 01:30:09;;;;;;;5.73;3.43;;;;;;;;;;5016410;28;20109;-61
2023/08/15 01:32:59;;;;;;;6.13;3.15;;;;;;;;;;5021736;28;20048;-61
2023/08/15 01:35:30;;;;;;;6.32;3.00;;;;;;;;;;5052063;28;20095;-63
2023/08/15 01:37:59;;;;;;;5.32;3.28;;;;;;;;;;5018732;28;20025;-62
2023/08/15 01:40:26;;;;;;;5.15;2.70;;;;;;;;;;5018837;28;20129;-61
2023/08/15 01:42:55;;;;;;;5.75;2.92;;;;;;;;;;5033645;28;20025;-61
2023/08/15 01:45:21;;;;;;;6.47;3.20;;;;;;;;;;5018804;28;20048;-60
2023/08/15 01:47:47;;;;;;;5.40;3.10;;;;;;;;;;5015156;28;20032;-62
2023/08/15 01:50:12;;;;;;;5.87;2.73;;;;;;;;;;5016004;28;20432;-61
2023/08/15 01:52:37;;;;;;;6.43;2.83;;;;;;;;;;5019513;28;20029;-63
2023/08/15 01:55:03;;;;;;;4.57;2.65;;;;;;;;;;5025688;28;20109;-61
2023/08/15 01:57:30;;;;;;;6.45;3.10;;;;;;;;;;5017509;28;20025;-64
2023/08/15 01:59:58;;;;;;;6.40;3.20;;;;;;;;;;5007318;28;20028;-63
2023/08/15 02:02:28;;;;;;;6.00;2.88;;;;;;;;;;5008270;28;20025;-63
2023/08/15 02:04:53;;;;;;;5.47;3.03;;;;;;;;;;5015724;28;20065;-62
2023/08/15 02:07:18;;;;;;;6.30;3.03;;;;;;;;;;5014916;28;20072;-62
2023/08/15 02:09:43;;;;;;;5.20;3.07;;;;;;;;;;5016396;28;20412;-62
2023/08/15 02:12:11;;;;;;;5.40;2.83;;;;;;;;;;5018665;28;21094;-61
2023/08/15 02:14:36;;;;;;;6.43;3.00;;;;;;;;;;5009133;28;20103;-62
2023/08/15 02:17:02;;;;;;;4.83;2.97;;;;;;;;;;5031345;28;20379;-62
2023/08/15 02:19:30;;;;;;;4.50;2.70;;;;;;;;;;5011979;28;20056;-61
2023/08/15 02:21:56;;;;;;;5.25;3.25;;;;;;;;;;5013676;28;20143;-61
2023/08/15 02:24:22;;;;;;;5.03;2.80;;;;;;;;;;5020270;28;20049;-63
2023/08/15 02:26:47;;;;;;;5.23;2.97;;;;;;;;;;5017166;28;20742;-62
2023/08/15 02:29:15;;;;;;;4.67;2.80;;;;;;;;;;5018282;28;20341;-62
2023/08/15 02:31:46;;;;;;;4.80;2.80;;;;;;;;;;5022683;28;20017;-60
2023/08/15 02:34:14;;;;;;;4.95;2.80;;;;;;;;;;5019438;28;20164;-61
2023/08/15 02:36:39;;;;;;;5.63;3.38;;;;;;;;;;5011988;28;20383;-62
2023/08/15 02:39:04;;;;;;;5.17;3.20;;;;;;;;;;5016420;28;20021;-61
2023/08/15 02:41:32;;;;;;;5.88;3.35;;;;;;;;;;5017290;28;20280;-63
2023/08/15 02:44:00;;;;;;;6.55;3.70;;;;;;;;;;5030579;28;20091;-61
2023/08/15 02:46:26;;;;;;;5.43;3.38;;;;;;;;;;5019658;28;20053;-62
2023/08/15 02:48:52;;;;;;;5.93;3.70;;;;;;;;;;5007627;28;20018;-61
2023/08/15 02:51:17;;;;;;;5.18;3.05;;;;;;;;;;5014851;28;20040;-63
2023/08/15 02:53:42;;;;;;;6.60;3.40;;;;;;;;;;5018702;28;20037;-63
2023/08/15 02:56:07;;;;;;;5.50;3.47;;;;;;;;;;5014938;28;20252;-61
2023/08/15 02:58:33;;;;;;;6.67;3.97;;;;;;;;;;5015361;28;20256;-61
2023/08/15 03:00:58;;;;;;;6.20;3.60;;;;;;;;;;5020378;28;20581;-61
2023/08/15 03:03:25;;;;;;;4.93;3.30;;;;;;;;;;5015472;28;20021;-61
2023/08/15 03:05:50;;;;;;;5.28;3.33;;;;;;;;;;5017944;28;20022;-62
2023/08/15 03:08:16;;;;;;;6.83;3.60;;;;;;;;;;5013574;28;20687;-62
2023/08/15 03:10:42;;;;;;;5.13;3.30;;;;;;;;;;5015342;28;20286;-63
2023/08/15 03:13:10;;;;;;;6.93;3.42;;;;;;;;;;5023567;28;20037;-63
2023/08/15 03:15:36;;;;;;;6.28;3.33;;;;;;;;;;5012615;28;20025;-63
2023/08/15 03:18:03;;;;;;;5.82;3.30;;;;;;;;;;5010178;28;20037;-62
2023/08/15 03:20:29;;;;;;;7.60;3.65;;;;;;;;;;5012578;28;20049;-62
2023/08/15 03:22:54;;;;;;;5.95;3.53;;;;;;;;;;5012234;28;20072;-63
2023/08/15 03:25:20;;;;;;;5.57;3.13;;;;;;;;;;5008688;28;20117;-62
2023/08/15 03:27:45;;;;;;;6.70;3.60;;;;;;;;;;5011331;28;20271;-63
2023/08/15 03:30:12;;;;;;;6.33;3.60;;;;;;;;;;5012193;28;20464;-63
2023/08/15 03:32:38;;;;;;;5.55;3.88;;;;;;;;;;5000263;28;20279;-62
2023/08/15 03:35:03;;;;;;;6.50;3.80;;;;;;;;;;5002003;28;20088;-63
2023/08/15 03:37:28;;;;;;;5.90;3.67;;;;;;;;;;5005726;28;20098;-62
2023/08/15 03:39:53;;;;;;;6.60;4.10;;;;;;;;;;5009096;28;20028;-62
2023/08/15 03:42:19;;;;;;;5.70;3.60;;;;;;;;;;5017999;28;20022;-61
2023/08/15 03:44:46;;;;;;;5.77;3.43;;;;;;;;;;5010518;28;20289;-61
2023/08/15 03:47:11;;;;;;;7.22;3.88;;;;;;;;;;5012769;28;20018;-61
2023/08/15 03:49:37;;;;;;;5.53;3.73;;;;;;;;;;5016814;28;20017;-61
2023/08/15 03:52:03;;;;;;;6.22;3.83;;;;;;;;;;5013031;28;20017;-62
2023/08/15 03:54:28;;;;;;;6.15;4.00;;;;;;;;;;5018520;28;20040;-62
2023/08/15 03:56:53;;;;;;;6.07;4.00;;;;;;;;;;5007874;28;20361;-61
2023/08/15 03:59:19;;;;;;;5.90;4.00;;;;;;;;;;5007232;28;20256;-62
2023/08/15 04:01:44;;;;;;;7.60;3.92;;;;;;;;;;5007138;28;20027;-61
2023/08/15 04:04:11;;;;;;;8.33;3.83;;;;;;;;;;5008909;28;20647;-63
2023/08/15 04:06:37;;;;;;;6.75;3.58;;;;;;;;;;5003736;28;20014;-61
2023/08/15 04:09:04;;;;;;;7.68;3.85;;;;;;;;;;5007970;28;20028;-62
2023/08/15 04:11:29;;;;;;;7.95;3.92;;;;;;;;;;5011853;28;20021;-61
2023/08/15 04:13:55;;;;;;;6.53;3.70;;;;;;;;;;5045568;28;20079;-62
2023/08/15 04:16:22;;;;;;;7.00;4.07;;;;;;;;;;5001961;28;20260;-62
2023/08/15 04:18:50;;;;;;;5.60;3.67;;;;;;;;;;5032419;28;20347;-63
2023/08/15 04:21:15;;;;;;;5.43;3.70;;;;;;;;;;4993463;28;20829;-62
2023/08/15 04:23:40;;;;;;;7.23;4.27;;;;;;;;;;5028638;28;20057;-62
2023/08/15 04:26:06;;;;;;;5.80;3.40;;;;;;;;;;5030407;28;20844;-61
2023/08/15 04:28:34;;;;;;;6.20;3.40;;;;;;;;;;5000277;28;20135;-62
2023/08/15 04:30:59;;;;;;;7.32;3.50;;;;;;;;;;5006474;28;20036;-61
2023/08/15 04:33:24;;;;;;;7.10;4.28;;;;;;;;;;4999440;28;20014;-59
2023/08/15 04:35:50;;;;;;;5.90;3.70;;;;;;;;;;5003189;28;20021;-60
2023/08/15 04:38:15;;;;;;;6.55;3.80;;;;;;;;;;5001549;28;20264;-61
2023/08/15 04:40:40;;;;;;;6.63;3.70;;;;;;;;;;5005032;28;20018;-62
2023/08/15 04:43:06;;;;;;;5.60;3.70;;;;;;;;;;5013838;28;20267;-61
2023/08/15 04:45:40;;;;;;;6.00;3.53;;;;;;;;;;5012286;28;20519;-62
2023/08/15 04:48:05;;;;;;;6.28;3.60;;;;;;;;;;5012343;28;20132;-61
2023/08/15 04:50:30;;;;;;;5.47;3.13;;;;;;;;;;5011878;28;20035;-60
2023/08/15 04:52:56;;;;;;;6.70;3.47;;;;;;;;;;5010824;28;20630;-62
2023/08/15 04:55:21;;;;;;;6.18;3.47;;;;;;;;;;5010413;28;20029;-63
2023/08/15 04:57:49;;;;;;;5.18;3.40;;;;;;;;;;5017069;28;20128;-63
2023/08/15 05:00:15;;;;;;;6.40;3.53;;;;;;;;;;5015400;28;20032;-62
2023/08/15 05:02:41;;;;;;;5.32;3.53;;;;;;;;;;5007471;28;20697;-62
2023/08/15 05:05:09;;;;;;;7.40;3.72;;;;;;;;;;5011102;28;20033;-63
2023/08/15 05:07:37;;;;;;;6.82;3.70;;;;;;;;;;5003225;28;20414;-61
2023/08/15 05:10:03;;;;;;;7.22;3.75;;;;;;;;;;5008657;28;20028;-61
2023/08/15 05:12:28;;;;;;;6.80;3.60;;;;;;;;;;5002155;28;20021;-64
2023/08/15 05:14:53;;;;;;;6.13;3.70;;;;;;;;;;5009754;28;20029;-60
2023/08/15 05:17:19;;;;;;;6.17;3.27;;;;;;;;;;5009255;28;20025;-62
2023/08/15 05:19:44;;;;;;;5.40;3.20;;;;;;;;;;5006049;28;20777;-62
2023/08/15 05:22:12;;;;;;;5.82;3.30;;;;;;;;;;5007276;28;20529;-62
2023/08/15 05:24:37;;;;;;;6.22;3.38;;;;;;;;;;5006519;28;20500;-62
2023/08/15 05:27:02;;;;;;;6.57;3.87;;;;;;;;;;5015312;28;20026;-61
2023/08/15 05:29:27;;;;;;;6.95;3.97;;;;;;;;;;5013383;28;20836;-62
2023/08/15 05:31:53;;;;;;;6.30;3.63;;;;;;;;;;5005007;28;20085;-62
2023/08/15 05:34:18;;;;;;;6.15;4.10;;;;;;;;;;5013968;28;20753;-61
2023/08/15 05:36:43;;;;;;;6.17;4.00;;;;;;;;;;5013221;28;20567;-60
2023/08/15 05:39:08;;;;;;;5.67;3.93;;;;;;;;;;5014201;28;20460;-62
2023/08/15 05:41:34;;;;;;;6.88;4.00;;;;;;;;;;5015273;28;20024;-61
2023/08/15 05:44:01;;;;;;;7.23;4.20;;;;;;;;;;5016957;28;20057;-61
2023/08/15 05:46:29;;;;;;;7.10;4.20;;;;;;;;;;5014552;28;20257;-63
2023/08/15 05:48:57;;;;;;;6.95;4.40;;;;;;;;;;5014445;28;20108;-62
2023/08/15 05:51:24;;;;;;;6.13;4.18;;;;;;;;;;5015893;28;20643;-63
2023/08/15 05:53:49;;;;;;;5.18;3.90;;;;;;;;;;5014327;28;20036;-62
2023/08/15 05:56:14;;;;;;;6.07;4.00;;;;;;;;;;5014260;28;20020;-63
2023/08/15 05:58:40;;;;;;;6.13;3.97;;;;;;;;;;5013106;28;20046;-62
2023/08/15 06:01:05;;;;;;;6.40;4.40;;;;;;;;;;5013793;28;20899;-61
2023/08/15 06:03:33;;;;;;;7.20;4.40;;;;;;;;;;5014621;28;20267;-62
2023/08/15 06:05:58;;;;;;;7.10;4.03;;;;;;;;;;5030619;28;20025;-62
2023/08/15 06:08:25;;;;;;;6.03;3.90;;;;;;;;;;5014295;28;20123;-62
2023/08/15 06:10:50;;;;;;;8.30;4.03;;;;;;;;;;5011859;28;20041;-64
2023/08/15 06:13:18;;;;;;;7.10;3.87;;;;;;;;;;5012448;28;20210;-61
2023/08/15 06:15:45;;;;;;;7.13;3.70;;;;;;;;;;5014692;28;20015;-62
2023/08/15 06:18:11;;;;;;;8.50;4.40;;;;;;;;;;5014277;28;20033;-63
2023/08/15 06:20:36;;;;;;;6.70;4.00;;;;;;;;;;5013422;28;20021;-63
2023/08/15 06:23:02;;;;;;;6.03;3.85;;;;;;;;;;5013298;28;21630;-62
2023/08/15 06:25:27;;;;;;;5.65;3.47;;;;;;;;;;5017587;28;20084;-63
2023/08/15 06:27:53;;;;;;;5.47;3.57;;;;;;;;;;5018020;28;20026;-63
2023/08/15 06:30:18;;;;;;;8.07;3.72;;;;;;;;;;5020037;28;20014;-62
2023/08/15 06:32:45;;;;;;;6.03;3.73;;;;;;;;;;5015390;28;20099;-63
2023/08/15 06:35:10;;;;;;;6.47;3.85;;;;;;;;;;5012344;28;20295;-63
2023/08/15 06:37:35;;;;;;;5.27;3.43;;;;;;;;;;5019705;28;20026;-63
2023/08/15 06:40:01;;;;;;;6.70;3.65;;;;;;;;;;5017749;28;20754;-62
2023/08/15 06:42:26;;;;;;;5.93;3.60;;;;;;;;;;5015274;28;20650;-62
2023/08/15 06:45:00;;;;;;;5.47;3.50;;;;;;;;;;5019372;28;20263;-63
2023/08/15 06:47:30;;;;;;;5.20;3.55;;;;;;;;;;5017384;28;20112;-63
2023/08/15 06:49:56;;;;;;;7.18;3.88;;;;;;;;;;5018524;28;20025;-63
2023/08/15 06:52:21;;;;;;;5.72;3.38;;;;;;;;;;5016456;28;20854;-64
2023/08/15 06:54:46;;;;;;;5.90;3.72;;;;;;;;;;5009467;28;20453;-61
2023/08/15 06:57:12;;;;;;;6.63;3.42;;;;;;;;;;5013165;28;20601;-61
2023/08/15 06:59:39;;;;;;;5.37;3.40;;;;;;;;;;5011230;28;20018;-62
2023/08/15 07:02:07;;;;;;;6.30;4.07;;;;;;;;;;5012289;28;20260;-63
2023/08/15 07:04:33;;;;;;;5.50;3.83;;;;;;;;;;5013869;28;20856;-62
2023/08/15 07:07:01;;;;;;;5.70;3.70;;;;;;;;;;5016126;28;20385;-61
2023/08/15 07:09:28;;;;;;;6.57;3.78;;;;;;;;;;5014658;28;20114;-61
2023/08/15 07:11:53;;;;;;;5.50;3.58;;;;;;;;;;5007616;28;20021;-64
2023/08/15 07:14:19;;;;;;;8.15;3.63;;;;;;;;;;5011275;28;20614;-60
2023/08/15 07:16:46;;;;;;;7.82;3.83;;;;;;;;;;5013368;28;20108;-62
2023/08/15 07:19:13;;;;;;;6.28;3.72;;;;;;;;;;5014773;28;20033;-62
2023/08/15 07:21:41;;;;;;;5.40;3.72;;;;;;;;;;5012839;28;20158;-59
2023/08/15 07:24:09;;;;;;;6.88;3.90;;;;;;;;;;5013918;28;20028;-62
2023/08/15 07:26:34;;;;;;;6.82;3.63;;;;;;;;;;5017067;28;20735;-61
2023/08/15 07:29:00;;;;;;;5.27;3.57;;;;;;;;;;5014164;28;20017;-61
2023/08/15 07:31:30;;;;;;;6.30;3.50;;;;;;;;;;5013716;28;20550;-63
2023/08/15 07:33:55;;;;;;;6.70;3.78;;;;;;;;;;5017241;28;20041;-62
2023/08/15 07:36:20;;;;;;;5.60;3.60;;;;;;;;;;5013096;28;20018;-61
2023/08/15 07:38:46;;;;;;;8.17;4.30;;;;;;;;;;5016623;28;20287;-62
2023/08/15 07:41:11;;;;;;;5.07;3.50;;;;;;;;;;5013743;28;20021;-63
2023/08/15 07:43:36;;;;;;;6.13;3.83;;;;;;;;;;5016032;28;20045;-63
2023/08/15 07:46:04;;;;;;;6.40;3.90;;;;;;;;;;5016417;28;20586;-63
2023/08/15 07:48:32;;;;;;;6.28;4.03;;;;;;;;;;5012980;28;20044;-61
2023/08/15 07:50:59;;;;;;;5.18;3.38;;;;;;;;;;5016755;28;20013;-62
2023/08/15 07:53:24;;;;;;;6.60;3.85;;;;;;;;;;5016945;28;20014;-64
2023/08/15 07:55:51;;;;;;;6.93;3.67;;;;;;;;;;5015632;28;20025;-62
2023/08/15 07:58:16;;;;;;;6.40;3.70;;;;;;;;;;5016597;28;20052;-63
2023/08/15 08:00:43;;;;;;;6.82;3.60;;;;;;;;;;5016461;28;20556;-63
2023/08/15 08:03:11;;;;;;;5.65;3.50;;;;;;;;;;5017348;28;20449;-63
2023/08/15 08:05:36;;;;;;;5.50;3.60;;;;;;;;;;5016216;28;20217;-63
2023/08/15 08:08:01;;;;;;;6.40;4.20;;;;;;;;;;5015601;28;20664;-63
2023/08/15 08:10:27;;;;;;;6.05;3.90;;;;;;;;;;5015284;28;20028;-63
2023/08/15 08:12:52;;;;;;;6.13;3.90;;;;;;;;;;5013916;28;20049;-63
2023/08/15 08:15:18;;;;;;;5.97;3.75;;;;;;;;;;5013911;28;20022;-66
2023/08/15 08:17:46;;;;;;;7.13;4.10;;;;;;;;;;5029344;28;20619;-64
2023/08/15 08:20:17;;;;;;;6.35;3.47;;;;;;;;;;5016948;28;20739;-66
2023/08/15 08:22:42;;;;;;;7.15;3.85;;;;;;;;;;5015480;28;20081;-65
2023/08/15 08:25:16;;;;;;;6.18;3.50;;;;;;;;;;5013995;28;20595;-62
2023/08/15 08:27:43;;;;;;;5.22;3.25;;;;;;;;;;5015627;28;20021;-63
2023/08/15 08:30:09;;;;;;;5.72;3.20;;;;;;;;;;5017612;28;20021;-65
2023/08/15 08:32:37;;;;;;;5.30;3.30;;;;;;;;;;5018705;28;20021;-65
2023/08/15 08:35:03;;;;;;;7.10;3.20;;;;;;;;;;5017146;28;20021;-63
2023/08/15 08:37:29;;;;;;;6.70;2.97;;;;;;;;;;5016236;28;20028;-64
2023/08/15 08:39:54;;;;;;;6.22;2.78;;;;;;;;;;5013633;28;20025;-66
2023/08/15 08:42:20;;;;;;;5.07;2.77;;;;;;;;;;5008106;28;20029;-64
2023/08/15 08:44:48;;;;;;;5.20;2.97;;;;;;;;;;5012474;28;20128;-64
2023/08/15 08:47:13;;;;;;;5.88;2.85;;;;;;;;;;5013930;28;20014;-63
2023/08/15 08:49:40;;;;;;;4.67;3.00;;;;;;;;;;5012385;28;20863;-65
2023/08/15 08:52:06;;;;;;;5.82;2.75;;;;;;;;;;5011818;28;20363;-66
2023/08/15 08:54:31;;;;;;;6.28;2.85;;;;;;;;;;5012213;28;20037;-63
2023/08/15 08:56:57;;;;;;;5.00;2.67;;;;;;;;;;5014489;28;20024;-65
2023/08/15 08:59:24;;;;;;;5.53;3.15;;;;;;;;;;5013232;28;20831;-65
2023/08/15 09:01:49;;;;;;;5.45;2.92;;;;;;;;;;5012063;28;20132;-64
2023/08/15 09:04:19;;;;;;;6.47;3.00;;;;;;;;;;5012592;28;20561;-65
2023/08/15 09:06:44;;;;;;;5.20;3.05;;;;;;;;;;5011968;28;20018;-64
2023/08/15 09:09:10;;;;;;;6.33;3.13;;;;;;;;;;5014726;28;20021;-63
2023/08/15 09:11:38;;;;;;;5.35;3.10;;;;;;;;;;5013527;28;20339;-64
2023/08/15 09:14:04;;;;;;;5.53;3.22;;;;;;;;;;5015221;28;20365;-63
2023/08/15 09:16:30;;;;;;;5.00;2.90;;;;;;;;;;5017921;28;20512;-64
2023/08/15 09:18:58;;;;;;;8.90;2.80;;;;;;;;;;5015546;28;20032;-64
2023/08/15 09:21:26;;;;;;;7.43;3.15;;;;;;;;;;5012438;28;20041;-65
2023/08/15 09:23:52;;;;;;;4.70;2.80;;;;;;;;;;5011457;28;20024;-64
2023/08/15 09:26:17;;;;;;;4.70;2.95;;;;;;;;;;5011028;28;20026;-64
2023/08/15 09:28:43;;;;;;;6.33;2.60;;;;;;;;;;5007813;28;20028;-66
2023/08/15 09:31:10;;;;;;;5.85;3.30;;;;;;;;;;5009756;28;20488;-63
2023/08/15 09:33:37;;;;;;;5.03;2.85;;;;;;;;;;5014135;28;20048;-62
2023/08/15 09:36:04;;;;;;;5.95;2.88;;;;;;;;;;5014260;28;20095;-64
2023/08/15 09:38:29;;;;;;;5.25;3.05;;;;;;;;;;5016070;28;20029;-64
2023/08/15 09:40:59;;;;;;;5.93;2.90;;;;;;;;;;5016499;28;20018;-65
2023/08/15 09:43:28;;;;;;;6.10;3.10;;;;;;;;;;5013057;28;20017;-65
2023/08/15 09:45:55;;;;;;;5.85;3.35;;;;;;;;;;5014501;28;20036;-65
2023/08/15 09:48:20;;;;;;;5.85;3.80;;;;;;;;;;5016647;28;20017;-65
2023/08/15 09:50:48;;;;;;;5.35;3.20;;;;;;;;;;5019452;28;20029;-64
2023/08/15 09:53:14;;;;;;;5.28;3.30;;;;;;;;;;5018662;28;20021;-65
2023/08/15 09:55:40;;;;;;;5.60;3.50;;;;;;;;;;5015116;28;20048;-64
2023/08/15 09:58:05;;;;;;;5.38;3.55;;;;;;;;;;5014934;28;20462;-65
2023/08/15 10:00:34;;;;;;;6.60;3.83;;;;;;;;;;5016916;28;20584;-66
2023/08/15 10:03:12;;;;;;;5.80;3.60;;;;;;;;;;5021579;28;20029;-64
2023/08/15 10:05:41;;;;;;;4.93;3.60;;;;;;;;;;5032386;28;20272;-63
2023/08/15 10:08:06;;;;;;;6.47;3.25;;;;;;;;;;5019569;28;20017;-65
2023/08/15 10:10:35;;;;;;;8.15;3.90;;;;;;;;;;5024030;28;20072;-64
2023/08/15 10:13:00;;;;;;;6.30;3.40;;;;;;;;;;5015133;28;20028;-64
2023/08/15 10:15:26;;;;;;;5.63;3.42;;;;;;;;;;5020094;28;20484;-64
2023/08/15 10:17:52;;;;;;;5.65;3.83;;;;;;;;;;5017487;28;20529;-66
2023/08/15 10:20:18;;;;;;;5.32;3.38;;;;;;;;;;5017893;28;20183;-63
2023/08/15 10:22:43;;;;;;;5.50;3.75;;;;;;;;;;5019065;28;20795;-66
2023/08/15 10:25:23;;;;;;;6.47;3.53;;;;;;;;;;5018023;28;20053;-64
2023/08/15 10:27:50;;;;;;;6.18;3.63;;;;;;;;;;5018625;28;20044;-65
2023/08/15 10:30:41;;;;;;;6.22;3.58;;;;;;;;;;5017799;28;20021;-63
2023/08/15 10:33:16;;;;;;;7.20;3.80;;;;;;;;;;5031333;28;20108;-63
2023/08/15 10:35:54;;;;;;;5.25;3.30;;;;;;;;;;5015757;28;20052;-65
2023/08/15 10:38:25;;;;;;;4.93;3.60;;;;;;;;;;5017629;28;20021;-63
2023/08/15 10:40:51;;;;;;;5.63;3.78;;;;;;;;;;5013279;28;20805;-64
2023/08/15 10:43:17;;;;;;;6.90;3.50;;;;;;;;;;5016716;28;20108;-63
2023/08/15 10:45:54;;;;;;;4.93;3.60;;;;;;;;;;5018293;28;20037;-63
2023/08/15 10:48:57;;;;;;;6.65;3.65;;;;;;;;;;5011986;28;20497;-65
2023/08/15 10:51:22;;;;;;;7.20;3.55;;;;;;;;;;4994939;28;20021;-63
2023/08/15 10:53:52;;;;;;;6.10;3.80;;;;;;;;;;5005149;28;20041;-63
2023/08/15 10:56:18;;;;;;;5.82;3.80;;;;;;;;;;5015483;28;20279;-63
2023/08/15 10:58:45;;;;;;;6.15;3.90;;;;;;;;;;5017700;28;20018;-66
2023/08/15 11:01:11;;;;;;;4.80;3.50;;;;;;;;;;5013910;28;20099;-64
2023/08/15 11:03:36;;;;;;;5.82;3.58;;;;;;;;;;5016842;28;20494;-63
2023/08/15 11:06:05;;;;;;;6.22;4.00;;;;;;;;;;5016808;28;20888;-61
2023/08/15 11:08:31;;;;;;;5.47;3.85;;;;;;;;;;5018524;28;20101;-64
2023/08/15 11:10:56;;;;;;;7.17;4.10;;;;;;;;;;5015547;28;20029;-62
2023/08/15 11:13:23;;;;;;;8.27;4.20;;;;;;;;;;5016449;28;20033;-63
2023/08/15 11:15:50;;;;;;;6.18;3.70;;;;;;;;;;5037827;28;20040;-62
2023/08/15 11:18:23;;;;;;;5.18;3.70;;;;;;;;;;5008114;28;20149;-64
2023/08/15 11:20:48;;;;;;;6.05;3.67;;;;;;;;;;5033799;28;20054;-68
2023/08/15 11:23:16;;;;;;;7.43;3.50;;;;;;;;;;5022470;28;20025;-64
2023/08/15 11:25:44;;;;;;;7.90;4.25;;;;;;;;;;5032379;28;20045;-64
2023/08/15 11:28:10;;;;;;;5.55;3.33;;;;;;;;;;5013460;28;20316;-64
2023/08/15 11:30:35;;;;;;;4.80;2.77;;;;;;;;;;5017321;28;20524;-64
2023/08/15 11:33:02;;;;;;;4.55;2.65;;;;;;;;;;5014248;28;20133;-62
2023/08/15 11:35:30;;;;;;;5.20;2.65;;;;;;;;;;5015735;28;20543;-62
2023/08/15 11:37:55;;;;;;;5.18;2.90;;;;;;;;;;5042560;28;20120;-65
2023/08/15 11:40:21;;;;;;;4.67;2.60;;;;;;;;;;5018092;28;20079;-62
2023/08/15 11:42:48;;;;;;;5.53;2.92;;;;;;;;;;5014000;28;20041;-64
2023/08/15 11:45:18;;;;;;;7.50;3.40;;;;;;;;;;5015563;28;20044;-65
2023/08/15 11:48:00;;;;;;;4.70;2.90;;;;;;;;;;5015309;28;20528;-62
2023/08/15 11:50:26;;;;;;;5.25;3.40;;;;;;;;;;5014435;28;20409;-64
2023/08/15 11:52:51;;;;;;;6.20;3.15;;;;;;;;;;5011695;28;20129;-63
2023/08/15 11:55:18;;;;;;;6.30;3.80;;;;;;;;;;5012566;28;20396;-64
2023/08/15 11:57:44;;;;;;;8.25;3.88;;;;;;;;;;5019611;28;20041;-63
2023/08/15 12:00:11;;;;;;;5.95;3.60;;;;;;;;;;5015054;28;20013;-63
2023/08/15 12:02:57;;;;;;;5.93;3.60;;;;;;;;;;5017698;28;20882;-63
2023/08/15 12:05:22;;;;;;;6.00;3.50;;;;;;;;;;5012149;28;20384;-64
2023/08/15 12:07:49;;;;;;;6.90;3.70;;;;;;;;;;5015276;28;20033;-63
2023/08/15 12:10:17;;;;;;;6.05;4.07;;;;;;;;;;5009609;28;20096;-63
2023/08/15 12:12:43;;;;;;;7.47;3.83;;;;;;;;;;5013847;28;20041;-63
2023/08/15 12:15:11;;;;;;;6.90;4.95;;;;;;;;;;5017997;28;20033;-63
2023/08/15 12:17:37;;;;;;;6.50;4.60;;;;;;;;;;5014502;28;20491;-63
2023/08/15 12:20:05;;;;;;;6.55;4.03;;;;;;;;;;5014628;28;20013;-64
2023/08/15 12:22:30;;;;;;;7.70;3.67;;;;;;;;;;5015611;28;20052;-64
2023/08/15 12:24:56;;;;;;;5.63;3.80;;;;;;;;;;5010700;28;20022;-66
2023/08/15 12:27:21;;;;;;;8.35;4.03;;;;;;;;;;5015861;28;20072;-63
2023/08/15 12:29:47;;;;;;;7.05;3.72;;;;;;;;;;5014383;28;20545;-66
2023/08/15 12:32:12;;;;;;;6.78;3.92;;;;;;;;;;5015605;28;20017;-64
2023/08/15 12:34:40;;;;;;;7.50;4.25;;;;;;;;;;5015037;28;20029;-65
2023/08/15 12:37:05;;;;;;;8.38;3.88;;;;;;;;;;5013656;28;20025;-64
2023/08/15 12:39:33;;;;;;;6.33;4.20;;;;;;;;;;5013849;28;20359;-64
2023/08/15 12:41:58;;;;;;;6.53;4.40;;;;;;;;;;5012007;28;20318;-64
2023/08/15 12:44:25;;;;;;;6.83;4.10;;;;;;;;;;5014437;28;20100;-63
2023/08/15 12:46:51;;;;;;;6.63;4.10;;;;;;;;;;5019648;28;20104;-63
2023/08/15 12:49:16;;;;;;;7.47;4.10;;;;;;;;;;5012795;28;20025;-66
2023/08/15 12:51:41;;;;;;;5.70;4.00;;;;;;;;;;5010652;28;20018;-64
2023/08/15 12:54:07;;;;;;;7.60;4.47;;;;;;;;;;5013324;28;20044;-65
2023/08/15 12:56:32;;;;;;;6.35;4.13;;;;;;;;;;5015579;28;20264;-65
2023/08/15 12:58:57;;;;;;;6.40;4.07;;;;;;;;;;5013633;28;20571;-64
2023/08/15 13:01:23;;;;;;;6.17;4.50;;;;;;;;;;5014797;28;20292;-65
2023/08/15 13:03:50;;;;;;;6.78;4.50;;;;;;;;;;5014906;28;20291;-64
2023/08/15 13:06:16;;;;;;;6.32;4.10;;;;;;;;;;5022542;28;20145;-65
2023/08/15 13:08:41;;;;;;;6.97;4.28;;;;;;;;;;5011873;28;20489;-64
2023/08/15 13:11:06;;;;;;;7.22;4.20;;;;;;;;;;5019381;28;20029;-64
2023/08/15 13:13:37;;;;;;;8.03;4.57;;;;;;;;;;5017291;28;20032;-65
2023/08/15 13:16:09;;;;;;;6.30;4.43;;;;;;;;;;5019994;28;20036;-66
2023/08/15 13:18:36;;;;;;;7.43;4.88;;;;;;;;;;5012907;28;20148;-65
2023/08/15 13:21:02;;;;;;;7.40;4.38;;;;;;;;;;5015397;28;20135;-64
2023/08/15 13:23:27;;;;;;;6.28;4.30;;;;;;;;;;5024033;28;20021;-64
2023/08/15 13:25:55;;;;;;;5.90;4.43;;;;;;;;;;5019475;28;20491;-65
2023/08/15 13:28:20;;;;;;;5.88;4.25;;;;;;;;;;5018102;28;20014;-63
2023/08/15 13:30:46;;;;;;;8.30;4.67;;;;;;;;;;5040632;28;20064;-64
2023/08/15 13:33:12;;;;;;;9.52;4.65;;;;;;;;;;5014233;28;20264;-64
2023/08/15 13:35:38;;;;;;;7.32;4.38;;;;;;;;;;5017040;28;20053;-63
2023/08/15 13:38:03;;;;;;;7.20;4.70;;;;;;;;;;5015940;28;20100;-63
2023/08/15 13:40:29;;;;;;;7.55;4.50;;;;;;;;;;5017570;28;20266;-63
2023/08/15 13:42:55;;;;;;;7.73;4.67;;;;;;;;;;5015672;28;20025;-65
2023/08/15 13:45:20;;;;;;;6.47;4.72;;;;;;;;;;5022437;28;20037;-66
2023/08/15 13:47:47;;;;;;;8.02;4.32;;;;;;;;;;5017086;28;20052;-64
2023/08/15 13:50:13;;;;;;;7.47;4.35;;;;;;;;;;5025275;28;20017;-63
2023/08/15 13:52:38;;;;;;;7.83;4.80;;;;;;;;;;5016504;28;21341;-63
2023/08/15 13:55:08;;;;;;;6.53;4.87;;;;;;;;;;5019009;28;20187;-65
2023/08/15 13:57:34;;;;;;;6.97;4.55;;;;;;;;;;5017227;28;20147;-63
2023/08/15 14:00:02;;;;;;;6.47;4.67;;;;;;;;;;5015909;28;20500;-66
2023/08/15 14:02:30;;;;;;;10.33;5.30;;;;;;;;;;5017852;28;20029;-63
2023/08/15 14:04:55;;;;;;;5.85;4.80;;;;;;;;;;5013828;28;20026;-65
2023/08/15 14:07:20;;;;;;;6.68;4.53;;;;;;;;;;5012409;28;20022;-65
2023/08/15 14:09:46;;;;;;;7.70;5.00;;;;;;;;;;5012980;28;20571;-65
2023/08/15 14:12:11;;;;;;;6.67;4.80;;;;;;;;;;5013286;28;20029;-64
2023/08/15 14:14:37;;;;;;;7.22;4.80;;;;;;;;;;5014911;28;20029;-67
2023/08/15 14:17:05;;;;;;;8.80;5.53;;;;;;;;;;5010376;28;20109;-67
2023/08/15 14:19:30;;;;;;;7.43;5.20;;;;;;;;;;5011774;28;20049;-66
2023/08/15 14:21:55;;;;;;;6.83;4.73;;;;;;;;;;5011312;28;20544;-64
2023/08/15 14:24:21;;;;;;;6.77;4.60;;;;;;;;;;5026877;28;20099;-64
2023/08/15 14:26:49;;;;;;;9.35;5.28;;;;;;;;;;5012887;28;20037;-64
2023/08/15 14:29:14;;;;;;;9.00;5.15;;;;;;;;;;5015814;28;20022;-65
2023/08/15 14:31:39;;;;;;;7.93;4.97;;;;;;;;;;5012046;28;20037;-65
2023/08/15 14:34:05;;;;;;;7.03;4.90;;;;;;;;;;5013937;28;20201;-64
2023/08/15 14:36:30;;;;;;;6.30;5.10;;;;;;;;;;5029730;28;20030;-64
2023/08/15 14:38:55;;;;;;;6.55;5.07;;;;;;;;;;5016322;28;20512;-64
2023/08/15 14:41:23;;;;;;;7.70;5.27;;;;;;;;;;5012966;28;20025;-65